Kezdőlap
METAR-TAF:

METAR-TAF

Repülőterek :

Sabadell repülőtér

Sabadell, Spanyolország

földrajzi szélesség: 41-31N, földrajzi hosszúság: 002-06E, magasság: 250 m

Jelenlegi meteorológiai megfigyelések

A jelentés 27 perccel ezelõtt készült, 12:00 UTC
Nyugati szél 10 kt, nyugat-délnyugati és északnyugati között változik
Hőmérséklet 17°C
Páratartalom 52%
Légköri nyomás 1012 hPa
Látótávolság 10 km, vagy több
felhőtlen 1500 m magasságban, és nincs gomolyfelhõ

METAR: LELL 151200Z 28010KT 240V310 CAVOK 17/07 Q1012

Idő: 13:27 (12:27 UTC)

Előrejelzés

A jelentés 4 órával és 27 perccel ezelõtt készült, 08:00 UTC
Az előrejelzés 15-én 09 óra UTC és 16-én 09 óra UTC között érvényes
Nyugat-délnyugati szél 8 kt
Látótávolság 10 km, vagy több
Kevés felhő 4000 lábon
15-én 17 óra UTC és 15-én 19 óra UTC között fokozatosan kialakuló
Különbözõ irányokból fújó szél 4 kt

TAF: LELL 150800Z 1509/1609 25008KT 9999 FEW040 TX17/1513Z TN06/1606Z BECMG 1517/1519 VRB04KT

Meteorológiai megfigyelések és előrejelzések több, mint 4000 repülőtéren (METAR és TAF jelentéseket).

A térképen piros és sárga pontok jelzik az elérhető meteorológiai állomásokat.

Mozgassa az egeret a pont fölött, hogy megjelenjen az állomás neve.

Azután kattintson az időjárási megfigyelések és előrejelzések megtekintéséhez.

A térkép megváltoztatása: kattintson a fekete keresztel jelölt zöld gombra ráközelítéshez, a vonallal jelölt zöld gombra távolításhoz, vagy a zöld nyilakra a szomszédos térképek eléréséhez.


METAR-TAF: